Fryeburg, ME (04037)

2:23 PM EDT on October 30, 2014 (GMT -0400)
Wolfville Road | Change Station
CLOSE
Current Station
Personal Weather Station
Location: Stow, ME
Elevation: 550 ft
Nearby Weather Stations

Elev 550 ft 44.18 °N, 70.99 °W | Updated 30 seconds ago

Mostly Cloudy
Mostly Cloudy
51.3 °F
Feels Like 51.3 °F
N
0.0
Wind Variable Wind from ESE
Gusts 0.0 mph

Today
High -- | Low -- °F
--% Chance of Precip.
Yesterday
High -- | Low -- °F
Precip. -- in
7:17 AM 5:36 PM
Waxing Crescent, 46% visible
Pressure 29.90 in
Visibility 10.0 miles
Clouds Scattered Clouds 4900 ft
Mostly Cloudy 6000 ft
Dew Point 34 °F
Humidity 51%
Rainfall 0.00 in
Snow Depth Not available.
UV 2 out of 12
Pollen .60 out of 12
Air Quality Not available.
Flu Activity Not available.
METAR KIZG 301754Z AUTO 31012G16KT 10SM SCT049 BKN060 13/02 A2989 RMK AO2 SLP124 T01330017 10133 20028 56005

More Conditions Fewer Conditions

Pressure 29.90 in
Visibility 10.0 miles
Clouds Scattered Clouds 4900 ft
Mostly Cloudy 6000 ft
Dew Point 34 °F
Humidity 51%
Rainfall 0.00 in
Snow Depth Not available.
UV 2 out of 12
Pollen .60 out of 12
Air Quality Not available.
Flu Activity Not available.
METAR KIZG 301754Z AUTO 31012G16KT 10SM SCT049 BKN060 13/02 A2989 RMK AO2 SLP124 T01330017 10133 20028 56005

More Conditions Fewer Conditions

10-Day Weather Forecast

Almanac

Astronomy

Oct. 30, 2014 Rise Set
Actual Time
Civil Twilight
Nautical Twilight
Astronomical Twilight
Moon
Length of Visible Light
Length of Day
Tomorrow will be .
, % of the Moon is Illuminated

Today's Extremes

State Highs State Lows

Community

WunderPhotos

Upload Photos

1,766,419 photos uploaded!

WunderBlogs® & News

Nearby

Air Quality

  Air Quality AQ Index Pollutant
Not available.

Snow Depth

Station Depth Elevation

Earthquake Activity

City Distance Mag. Time & Date
Minimum magnitude displayed is 2.5.

Coastal Water Temperatures

Place Temperature

Nearby Weather Stations